AAL6201 KSFO-KLAX
Flight info
| Callsign | AAL6201 |
|---|---|
| Flight time | 1h 6m |
| Altitude | 39000 |
| Route | WESLA5 SUSEY EBAYE BURGL IRNMN2 |
| Aircraft | A319/M-SDE3FGHIRWY/LB1 |
Departure
| Time | 2026-05-06 03:46 |
|---|---|
| Airport | San Francisco International Airport (KSFO) |
Arrival
| Time | 2026-05-06 04:52 |
|---|---|
| Airport | Los Angeles International Airport (KLAX) |
| Time | Latitude | Longitude | Altitude | Speed | Heading |
|---|---|---|---|---|---|
| 2026-05-06 03:02 | 37.61033 | -122.38560 | 24 ft | 0 kts | 307° |
| 2026-05-06 03:31 | 37.61032 | -122.38558 | 22 ft | 2 kts | 307° |
| 2026-05-06 03:32 | 37.61015 | -122.38533 | 23 ft | 4 kts | 322° |
| 2026-05-06 03:32 | 37.60993 | -122.38520 | 24 ft | 4 kts | 8° |
| 2026-05-06 03:32 | 37.60982 | -122.38524 | 22 ft | 0 kts | 36° |
| 2026-05-06 03:37 | 37.60998 | -122.38510 | 24 ft | 7 kts | 36° |
| 2026-05-06 03:37 | 37.61036 | -122.38462 | 24 ft | 9 kts | 67° |
| 2026-05-06 03:38 | 37.61054 | -122.38378 | 22 ft | 11 kts | 60° |
| 2026-05-06 03:38 | 37.61123 | -122.38323 | 22 ft | 13 kts | 27° |
| 2026-05-06 03:38 | 37.61209 | -122.38267 | 22 ft | 15 kts | 27° |
| 2026-05-06 03:38 | 37.61307 | -122.38201 | 22 ft | 17 kts | 28° |
| 2026-05-06 03:39 | 37.61397 | -122.38140 | 22 ft | 8 kts | 34° |
| 2026-05-06 03:39 | 37.61396 | -122.38070 | 22 ft | 10 kts | 115° |
| 2026-05-06 03:39 | 37.61362 | -122.37987 | 22 ft | 12 kts | 118° |
| 2026-05-06 03:39 | 37.61320 | -122.37888 | 22 ft | 14 kts | 118° |
| 2026-05-06 03:40 | 37.61272 | -122.37773 | 23 ft | 16 kts | 117° |
| 2026-05-06 03:40 | 37.61228 | -122.37638 | 22 ft | 18 kts | 98° |
| 2026-05-06 03:40 | 37.61273 | -122.37491 | 22 ft | 19 kts | 42° |
| 2026-05-06 03:40 | 37.61396 | -122.37406 | 24 ft | 21 kts | 27° |
| 2026-05-06 03:41 | 37.61522 | -122.37314 | 22 ft | 19 kts | 48° |
| 2026-05-06 03:41 | 37.61559 | -122.37151 | 22 ft | 21 kts | 98° |
| 2026-05-06 03:41 | 37.61496 | -122.36980 | 23 ft | 22 kts | 118° |
| 2026-05-06 03:41 | 37.61394 | -122.36825 | 22 ft | 24 kts | 131° |
| 2026-05-06 03:42 | 37.61307 | -122.36643 | 22 ft | 25 kts | 118° |
| 2026-05-06 03:42 | 37.61223 | -122.36444 | 23 ft | 26 kts | 118° |
| 2026-05-06 03:42 | 37.61136 | -122.36236 | 22 ft | 27 kts | 118° |
| 2026-05-06 03:42 | 37.61102 | -122.36112 | 22 ft | 10 kts | 63° |
| 2026-05-06 03:43 | 37.61165 | -122.36065 | 24 ft | 4 kts | 27° |
| 2026-05-06 03:43 | 37.61165 | -122.36064 | 24 ft | 0 kts | 27° |
| 2026-05-06 03:44 | 37.61166 | -122.36064 | 24 ft | 0 kts | 27° |
| 2026-05-06 03:44 | 37.61175 | -122.36058 | 22 ft | 3 kts | 27° |
| 2026-05-06 03:44 | 37.61200 | -122.36041 | 23 ft | 5 kts | 28° |
| 2026-05-06 03:44 | 37.61240 | -122.36018 | 22 ft | 7 kts | 12° |
| 2026-05-06 03:45 | 37.61267 | -122.36065 | 22 ft | 8 kts | 293° |
| 2026-05-06 03:45 | 37.61313 | -122.36175 | 23 ft | 36 kts | 298° |
| 2026-05-06 03:45 | 37.61565 | -122.36774 | 23 ft | 114 kts | 298° |
| 2026-05-06 03:45 | 37.62032 | -122.37895 | 91 ft | 166 kts | 296° |
| 2026-05-06 03:46 | 37.62585 | -122.39227 | 670 ft | 177 kts | 296° |
| 2026-05-06 03:46 | 37.63168 | -122.40642 | 1343 ft | 187 kts | 297° |
| 2026-05-06 03:46 | 37.63827 | -122.42183 | 1890 ft | 213 kts | 297° |
| 2026-05-06 03:46 | 37.64578 | -122.43903 | 2612 ft | 230 kts | 297° |
| 2026-05-06 03:47 | 37.65364 | -122.45689 | 3363 ft | 238 kts | 297° |
| 2026-05-06 03:47 | 37.66157 | -122.47479 | 4244 ft | 245 kts | 299° |
| 2026-05-06 03:47 | 37.66888 | -122.49410 | 5109 ft | 260 kts | 287° |
| 2026-05-06 03:47 | 37.66807 | -122.51753 | 5882 ft | 280 kts | 251° |
| 2026-05-06 03:48 | 37.65640 | -122.53760 | 6739 ft | 294 kts | 218° |
| 2026-05-06 03:48 | 37.63741 | -122.54741 | 7627 ft | 302 kts | 185° |
| 2026-05-06 03:48 | 37.61668 | -122.54350 | 8557 ft | 304 kts | 155° |
| 2026-05-06 03:48 | 37.59811 | -122.53120 | 9702 ft | 301 kts | 148° |
| 2026-05-06 03:49 | 37.57955 | -122.51836 | 10482 ft | 313 kts | 148° |
| 2026-05-06 03:49 | 37.55984 | -122.50451 | 10876 ft | 334 kts | 148° |
| 2026-05-06 03:49 | 37.53922 | -122.49020 | 11695 ft | 341 kts | 151° |
| 2026-05-06 03:49 | 37.51700 | -122.47918 | 12600 ft | 346 kts | 158° |
| 2026-05-06 03:50 | 37.49433 | -122.46832 | 13422 ft | 351 kts | 153° |
| 2026-05-06 03:50 | 37.47341 | -122.45238 | 14198 ft | 353 kts | 138° |
| 2026-05-06 03:50 | 37.45596 | -122.43067 | 14952 ft | 353 kts | 129° |
| 2026-05-06 03:50 | 37.43944 | -122.40777 | 15805 ft | 354 kts | 128° |
| 2026-05-06 03:51 | 37.42310 | -122.38491 | 16581 ft | 358 kts | 128° |
| 2026-05-06 03:51 | 37.40609 | -122.36117 | 17348 ft | 362 kts | 128° |
| 2026-05-06 03:51 | 37.38906 | -122.33760 | 18098 ft | 367 kts | 128° |
| 2026-05-06 03:51 | 37.37201 | -122.31418 | 18744 ft | 371 kts | 128° |
| 2026-05-06 03:52 | 37.35445 | -122.29020 | 19015 ft | 373 kts | 128° |
| 2026-05-06 03:52 | 37.33679 | -122.26628 | 19092 ft | 373 kts | 128° |
| 2026-05-06 03:52 | 37.31910 | -122.24237 | 19106 ft | 373 kts | 129° |
| 2026-05-06 03:52 | 37.30141 | -122.21847 | 19109 ft | 374 kts | 128° |
| 2026-05-06 03:53 | 37.28371 | -122.19461 | 19112 ft | 373 kts | 128° |
| 2026-05-06 03:53 | 37.26599 | -122.17075 | 19106 ft | 373 kts | 128° |
| 2026-05-06 03:53 | 37.24806 | -122.14721 | 19104 ft | 374 kts | 130° |
| 2026-05-06 03:53 | 37.22964 | -122.12408 | 19103 ft | 374 kts | 131° |
| 2026-05-06 03:54 | 37.21098 | -122.10132 | 19103 ft | 375 kts | 131° |
| 2026-05-06 03:54 | 37.19217 | -122.07863 | 19110 ft | 375 kts | 131° |
| 2026-05-06 03:54 | 37.17337 | -122.05594 | 19112 ft | 375 kts | 131° |
| 2026-05-06 03:54 | 37.15459 | -122.03319 | 19108 ft | 375 kts | 131° |
| 2026-05-06 03:55 | 37.13588 | -122.01044 | 19116 ft | 375 kts | 131° |
| 2026-05-06 03:55 | 37.11722 | -121.98764 | 19109 ft | 375 kts | 131° |
| 2026-05-06 03:55 | 37.09851 | -121.96473 | 19109 ft | 375 kts | 131° |
| 2026-05-06 03:55 | 37.07987 | -121.94185 | 19115 ft | 375 kts | 131° |
| 2026-05-06 03:56 | 37.06105 | -121.91870 | 19615 ft | 380 kts | 131° |
| 2026-05-06 03:56 | 37.04212 | -121.89544 | 20321 ft | 382 kts | 131° |
| 2026-05-06 03:56 | 37.02304 | -121.87211 | 20966 ft | 386 kts | 130° |
| 2026-05-06 03:56 | 37.00371 | -121.84856 | 21635 ft | 389 kts | 130° |
| 2026-05-06 03:57 | 36.98421 | -121.82487 | 22296 ft | 392 kts | 130° |
| 2026-05-06 03:57 | 36.96482 | -121.80134 | 22964 ft | 395 kts | 130° |
| 2026-05-06 03:57 | 36.94501 | -121.77729 | 23620 ft | 399 kts | 130° |
| 2026-05-06 03:57 | 36.92500 | -121.75295 | 24166 ft | 402 kts | 130° |
| 2026-05-06 03:58 | 36.90487 | -121.72845 | 24717 ft | 405 kts | 130° |
| 2026-05-06 03:58 | 36.88460 | -121.70380 | 25249 ft | 408 kts | 130° |
| 2026-05-06 03:58 | 36.86417 | -121.67896 | 25781 ft | 410 kts | 130° |
| 2026-05-06 03:58 | 36.84362 | -121.65403 | 26308 ft | 413 kts | 130° |
| 2026-05-06 03:59 | 36.82295 | -121.62899 | 26865 ft | 415 kts | 130° |
| 2026-05-06 03:59 | 36.80214 | -121.60382 | 27392 ft | 417 kts | 129° |
| 2026-05-06 03:59 | 36.78124 | -121.57857 | 27883 ft | 419 kts | 129° |
| 2026-05-06 03:59 | 36.76021 | -121.55317 | 28336 ft | 422 kts | 129° |
| 2026-05-06 04:00 | 36.73904 | -121.52762 | 28788 ft | 425 kts | 129° |
| 2026-05-06 04:00 | 36.71767 | -121.50187 | 29263 ft | 428 kts | 129° |
| 2026-05-06 04:00 | 36.70348 | -121.48476 | 29547 ft | 430 kts | 129° |
| 2026-05-06 04:00 | 36.67459 | -121.44994 | 30144 ft | 434 kts | 129° |
| 2026-05-06 04:01 | 36.65280 | -121.42370 | 30513 ft | 437 kts | 129° |
| 2026-05-06 04:01 | 36.63088 | -121.39737 | 30902 ft | 439 kts | 129° |
| 2026-05-06 04:01 | 36.60911 | -121.37123 | 31279 ft | 441 kts | 129° |
| 2026-05-06 04:01 | 36.58691 | -121.34463 | 31649 ft | 444 kts | 129° |
| 2026-05-06 04:02 | 36.56465 | -121.31799 | 32020 ft | 446 kts | 129° |
| 2026-05-06 04:02 | 36.54217 | -121.29109 | 32375 ft | 449 kts | 129° |
| 2026-05-06 04:02 | 36.51968 | -121.26413 | 32735 ft | 451 kts | 129° |
| 2026-05-06 04:02 | 36.49711 | -121.23710 | 33255 ft | 449 kts | 128° |
| 2026-05-06 04:03 | 36.47458 | -121.21020 | 33765 ft | 448 kts | 128° |
| 2026-05-06 04:03 | 36.45214 | -121.18346 | 34239 ft | 447 kts | 128° |
| 2026-05-06 04:03 | 36.42966 | -121.15669 | 34668 ft | 446 kts | 128° |
| 2026-05-06 04:03 | 36.40727 | -121.12999 | 35056 ft | 446 kts | 128° |
| 2026-05-06 04:04 | 36.38491 | -121.10333 | 35432 ft | 445 kts | 129° |
| 2026-05-06 04:04 | 36.36258 | -121.07673 | 35819 ft | 445 kts | 129° |
| 2026-05-06 04:04 | 36.34023 | -121.05014 | 36179 ft | 445 kts | 129° |
| 2026-05-06 04:04 | 36.31787 | -121.02360 | 36542 ft | 445 kts | 129° |
| 2026-05-06 04:05 | 36.29553 | -120.99711 | 36906 ft | 444 kts | 129° |
| 2026-05-06 04:05 | 36.27317 | -120.97065 | 37252 ft | 444 kts | 129° |
| 2026-05-06 04:05 | 36.25077 | -120.94413 | 37634 ft | 444 kts | 129° |
| 2026-05-06 04:05 | 36.22842 | -120.91766 | 37985 ft | 444 kts | 129° |
| 2026-05-06 04:06 | 36.20607 | -120.89116 | 38350 ft | 444 kts | 129° |
| 2026-05-06 04:06 | 36.18374 | -120.86471 | 38698 ft | 444 kts | 130° |
| 2026-05-06 04:06 | 36.16142 | -120.83833 | 38967 ft | 444 kts | 130° |
| 2026-05-06 04:06 | 36.13901 | -120.81186 | 39076 ft | 445 kts | 130° |
| 2026-05-06 04:07 | 36.09446 | -120.75938 | 39100 ft | 442 kts | 130° |
| 2026-05-06 04:07 | 36.04997 | -120.70704 | 39105 ft | 441 kts | 130° |
| 2026-05-06 04:08 | 36.00573 | -120.65504 | 39092 ft | 441 kts | 130° |
| 2026-05-06 04:08 | 35.96131 | -120.60281 | 39090 ft | 441 kts | 130° |
| 2026-05-06 04:09 | 35.91674 | -120.55065 | 39089 ft | 442 kts | 130° |
| 2026-05-06 04:09 | 35.87213 | -120.49853 | 39096 ft | 442 kts | 131° |
| 2026-05-06 04:10 | 35.82729 | -120.44645 | 39112 ft | 443 kts | 131° |
| 2026-05-06 04:10 | 35.78261 | -120.39418 | 39123 ft | 443 kts | 131° |
| 2026-05-06 04:11 | 35.73785 | -120.34196 | 39118 ft | 443 kts | 131° |
| 2026-05-06 04:11 | 35.69297 | -120.28983 | 39121 ft | 444 kts | 131° |
| 2026-05-06 04:12 | 35.64794 | -120.23760 | 39103 ft | 444 kts | 131° |
| 2026-05-06 04:12 | 35.60291 | -120.18548 | 39092 ft | 444 kts | 131° |
| 2026-05-06 04:13 | 35.55810 | -120.13376 | 39102 ft | 445 kts | 131° |
| 2026-05-06 04:13 | 35.51294 | -120.08161 | 39105 ft | 446 kts | 131° |
| 2026-05-06 04:14 | 35.46769 | -120.02953 | 39071 ft | 448 kts | 131° |
| 2026-05-06 04:14 | 35.44466 | -120.00291 | 38850 ft | 462 kts | 131° |
| 2026-05-06 04:14 | 35.42111 | -119.97575 | 38606 ft | 466 kts | 131° |
| 2026-05-06 04:15 | 35.39745 | -119.94857 | 38325 ft | 466 kts | 131° |
| 2026-05-06 04:15 | 35.37379 | -119.92144 | 38054 ft | 465 kts | 131° |
| 2026-05-06 04:15 | 35.35809 | -119.90351 | 37875 ft | 464 kts | 131° |
| 2026-05-06 04:15 | 35.32660 | -119.86758 | 37509 ft | 460 kts | 131° |
| 2026-05-06 04:16 | 35.30335 | -119.84100 | 37218 ft | 455 kts | 131° |
| 2026-05-06 04:16 | 35.27954 | -119.81555 | 36704 ft | 456 kts | 136° |
| 2026-05-06 04:16 | 35.25445 | -119.79198 | 36187 ft | 453 kts | 136° |
| 2026-05-06 04:16 | 35.22948 | -119.76863 | 35675 ft | 450 kts | 135° |
| 2026-05-06 04:17 | 35.20467 | -119.74551 | 35160 ft | 447 kts | 135° |
| 2026-05-06 04:17 | 35.18003 | -119.72258 | 34632 ft | 444 kts | 134° |
| 2026-05-06 04:17 | 35.15553 | -119.69975 | 34099 ft | 441 kts | 134° |
| 2026-05-06 04:17 | 35.13941 | -119.68473 | 33713 ft | 439 kts | 134° |
| 2026-05-06 04:18 | 35.10716 | -119.65467 | 33026 ft | 432 kts | 133° |
| 2026-05-06 04:18 | 35.09136 | -119.63993 | 32687 ft | 429 kts | 133° |
| 2026-05-06 04:18 | 35.06779 | -119.61800 | 32183 ft | 425 kts | 133° |
| 2026-05-06 04:18 | 35.04438 | -119.59630 | 31717 ft | 421 kts | 133° |
| 2026-05-06 04:19 | 35.01359 | -119.56777 | 31039 ft | 417 kts | 133° |
| 2026-05-06 04:19 | 34.99807 | -119.55339 | 30729 ft | 414 kts | 133° |
| 2026-05-06 04:19 | 34.97525 | -119.53226 | 30279 ft | 410 kts | 132° |
| 2026-05-06 04:19 | 34.95271 | -119.51137 | 29768 ft | 405 kts | 133° |
| 2026-05-06 04:20 | 34.93043 | -119.49069 | 29328 ft | 399 kts | 133° |
| 2026-05-06 04:20 | 34.90849 | -119.47038 | 28904 ft | 393 kts | 133° |
| 2026-05-06 04:20 | 34.88669 | -119.45054 | 28494 ft | 389 kts | 133° |
| 2026-05-06 04:20 | 34.86498 | -119.43106 | 28143 ft | 386 kts | 134° |
| 2026-05-06 04:21 | 34.84338 | -119.41180 | 27679 ft | 384 kts | 134° |
| 2026-05-06 04:21 | 34.82185 | -119.39269 | 27270 ft | 381 kts | 135° |
| 2026-05-06 04:21 | 34.80057 | -119.37379 | 26868 ft | 377 kts | 135° |
| 2026-05-06 04:21 | 34.77947 | -119.35502 | 26465 ft | 374 kts | 135° |
| 2026-05-06 04:22 | 34.75858 | -119.33640 | 26081 ft | 371 kts | 135° |
| 2026-05-06 04:22 | 34.73779 | -119.31787 | 25682 ft | 369 kts | 135° |
| 2026-05-06 04:22 | 34.71704 | -119.29957 | 25299 ft | 368 kts | 136° |
| 2026-05-06 04:23 | 34.67570 | -119.26343 | 24526 ft | 365 kts | 137° |
| 2026-05-06 04:23 | 34.65540 | -119.24576 | 24164 ft | 363 kts | 137° |
| 2026-05-06 04:23 | 34.63489 | -119.22798 | 23706 ft | 362 kts | 138° |
| 2026-05-06 04:23 | 34.61440 | -119.21032 | 23198 ft | 361 kts | 138° |
| 2026-05-06 04:24 | 34.59399 | -119.19283 | 22739 ft | 357 kts | 139° |
| 2026-05-06 04:24 | 34.57380 | -119.17550 | 22281 ft | 355 kts | 139° |
| 2026-05-06 04:24 | 34.55376 | -119.15821 | 21828 ft | 353 kts | 139° |
| 2026-05-06 04:24 | 34.53394 | -119.14081 | 21384 ft | 351 kts | 138° |
| 2026-05-06 04:25 | 34.51438 | -119.12342 | 20959 ft | 348 kts | 138° |
| 2026-05-06 04:25 | 34.49493 | -119.10606 | 20531 ft | 346 kts | 139° |
| 2026-05-06 04:25 | 34.47558 | -119.08878 | 20078 ft | 345 kts | 139° |
| 2026-05-06 04:25 | 34.45627 | -119.07160 | 19641 ft | 344 kts | 140° |
| 2026-05-06 04:26 | 34.43702 | -119.05455 | 19253 ft | 342 kts | 140° |
| 2026-05-06 04:26 | 34.41780 | -119.03776 | 18798 ft | 341 kts | 140° |
| 2026-05-06 04:26 | 34.39857 | -119.02115 | 18488 ft | 337 kts | 141° |
| 2026-05-06 04:26 | 34.37942 | -119.00467 | 17968 ft | 336 kts | 141° |
| 2026-05-06 04:27 | 34.36069 | -118.98857 | 17430 ft | 334 kts | 141° |
| 2026-05-06 04:27 | 34.34188 | -118.97239 | 16997 ft | 329 kts | 141° |
| 2026-05-06 04:27 | 34.32350 | -118.95620 | 16565 ft | 325 kts | 140° |
| 2026-05-06 04:27 | 34.30553 | -118.93995 | 16167 ft | 322 kts | 140° |
| 2026-05-06 04:28 | 34.28775 | -118.92367 | 15762 ft | 320 kts | 140° |
| 2026-05-06 04:28 | 34.27008 | -118.90745 | 15366 ft | 319 kts | 140° |
| 2026-05-06 04:28 | 34.25235 | -118.89120 | 14958 ft | 320 kts | 141° |
| 2026-05-06 04:28 | 34.23464 | -118.87490 | 14574 ft | 320 kts | 141° |
| 2026-05-06 04:29 | 34.21702 | -118.85864 | 14223 ft | 319 kts | 141° |
| 2026-05-06 04:29 | 34.19941 | -118.84241 | 13947 ft | 316 kts | 141° |
| 2026-05-06 04:29 | 34.18231 | -118.82667 | 13546 ft | 314 kts | 141° |
| 2026-05-06 04:29 | 34.16495 | -118.81066 | 13141 ft | 313 kts | 140° |
| 2026-05-06 04:30 | 34.14829 | -118.79392 | 12724 ft | 311 kts | 136° |
| 2026-05-06 04:30 | 34.13222 | -118.77654 | 12340 ft | 308 kts | 135° |
| 2026-05-06 04:30 | 34.11653 | -118.75914 | 12017 ft | 305 kts | 135° |
| 2026-05-06 04:30 | 34.10096 | -118.74181 | 11712 ft | 303 kts | 135° |
| 2026-05-06 04:31 | 34.08541 | -118.72468 | 11411 ft | 302 kts | 135° |
| 2026-05-06 04:31 | 34.06997 | -118.70775 | 11139 ft | 301 kts | 135° |
| 2026-05-06 04:31 | 34.05449 | -118.69083 | 10845 ft | 299 kts | 135° |
| 2026-05-06 04:31 | 34.04035 | -118.67287 | 10555 ft | 292 kts | 123° |
| 2026-05-06 04:32 | 34.03082 | -118.65162 | 10263 ft | 285 kts | 107° |
| 2026-05-06 04:32 | 34.02639 | -118.62877 | 10046 ft | 276 kts | 94° |
| 2026-05-06 04:32 | 34.02437 | -118.60589 | 9819 ft | 273 kts | 94° |
| 2026-05-06 04:32 | 34.02224 | -118.58325 | 9455 ft | 271 kts | 94° |
| 2026-05-06 04:33 | 34.02010 | -118.56077 | 9096 ft | 270 kts | 94° |
| 2026-05-06 04:33 | 34.01794 | -118.53830 | 8765 ft | 267 kts | 94° |
| 2026-05-06 04:33 | 34.01586 | -118.51653 | 8498 ft | 259 kts | 94° |
| 2026-05-06 04:33 | 34.01376 | -118.49456 | 7876 ft | 266 kts | 95° |
| 2026-05-06 04:34 | 34.01167 | -118.47271 | 7639 ft | 257 kts | 95° |
| 2026-05-06 04:34 | 34.01125 | -118.45175 | 7488 ft | 245 kts | 81° |
| 2026-05-06 04:34 | 34.01419 | -118.43180 | 7129 ft | 246 kts | 83° |
| 2026-05-06 04:34 | 34.01125 | -118.41196 | 6985 ft | 237 kts | 114° |
| 2026-05-06 04:35 | 34.00341 | -118.39511 | 7002 ft | 226 kts | 121° |
| 2026-05-06 04:35 | 33.99514 | -118.37906 | 7011 ft | 226 kts | 121° |
| 2026-05-06 04:35 | 33.98668 | -118.36308 | 7012 ft | 226 kts | 121° |
| 2026-05-06 04:35 | 33.97821 | -118.34711 | 7010 ft | 227 kts | 121° |
| 2026-05-06 04:36 | 33.96972 | -118.33111 | 7015 ft | 226 kts | 121° |
| 2026-05-06 04:36 | 33.96130 | -118.31514 | 7007 ft | 226 kts | 121° |
| 2026-05-06 04:36 | 33.95284 | -118.29924 | 7010 ft | 227 kts | 121° |
| 2026-05-06 04:36 | 33.94443 | -118.28323 | 7008 ft | 224 kts | 121° |
| 2026-05-06 04:37 | 33.93614 | -118.26736 | 7008 ft | 224 kts | 121° |
| 2026-05-06 04:37 | 33.92786 | -118.25147 | 7015 ft | 224 kts | 120° |
| 2026-05-06 04:37 | 33.91944 | -118.23553 | 7006 ft | 226 kts | 121° |
| 2026-05-06 04:37 | 33.91106 | -118.21967 | 6992 ft | 222 kts | 121° |
| 2026-05-06 04:38 | 33.90285 | -118.20414 | 6784 ft | 218 kts | 121° |
| 2026-05-06 04:38 | 33.89484 | -118.18877 | 6550 ft | 216 kts | 121° |
| 2026-05-06 04:38 | 33.88691 | -118.17347 | 6280 ft | 215 kts | 121° |
| 2026-05-06 04:38 | 33.88035 | -118.15739 | 5993 ft | 213 kts | 99° |
| 2026-05-06 04:39 | 33.88012 | -118.13962 | 5574 ft | 218 kts | 83° |
| 2026-05-06 04:39 | 33.88183 | -118.12123 | 5050 ft | 230 kts | 81° |
| 2026-05-06 04:39 | 33.88396 | -118.10183 | 4572 ft | 235 kts | 81° |
| 2026-05-06 04:39 | 33.88622 | -118.08250 | 4291 ft | 231 kts | 81° |
| 2026-05-06 04:40 | 33.88849 | -118.06358 | 4027 ft | 225 kts | 81° |
| 2026-05-06 04:40 | 33.89067 | -118.04548 | 3992 ft | 211 kts | 81° |
| 2026-05-06 04:40 | 33.89277 | -118.02811 | 3999 ft | 209 kts | 81° |
| 2026-05-06 04:40 | 33.89486 | -118.01091 | 4000 ft | 207 kts | 81° |
| 2026-05-06 04:41 | 33.89694 | -117.99373 | 3999 ft | 208 kts | 81° |
| 2026-05-06 04:41 | 33.89903 | -117.97655 | 4002 ft | 207 kts | 81° |
| 2026-05-06 04:41 | 33.90121 | -117.95938 | 4001 ft | 207 kts | 79° |
| 2026-05-06 04:41 | 33.90716 | -117.94381 | 3953 ft | 206 kts | 45° |
| 2026-05-06 04:42 | 33.91936 | -117.93557 | 3852 ft | 202 kts | 10° |
| 2026-05-06 04:42 | 33.93309 | -117.93356 | 3758 ft | 202 kts | 2° |
| 2026-05-06 04:42 | 33.94715 | -117.93251 | 3656 ft | 202 kts | 1° |
| 2026-05-06 04:42 | 33.96113 | -117.93157 | 3555 ft | 201 kts | 1° |
| 2026-05-06 04:43 | 33.97514 | -117.93069 | 3457 ft | 201 kts | 1° |
| 2026-05-06 04:43 | 33.98915 | -117.92979 | 3357 ft | 201 kts | 1° |
| 2026-05-06 04:43 | 34.00315 | -117.92913 | 3242 ft | 201 kts | 356° |
| 2026-05-06 04:43 | 34.01588 | -117.93488 | 3140 ft | 197 kts | 317° |
| 2026-05-06 04:44 | 34.02267 | -117.94871 | 3050 ft | 194 kts | 278° |
| 2026-05-06 04:44 | 34.02045 | -117.96423 | 2986 ft | 192 kts | 236° |
| 2026-05-06 04:44 | 34.01191 | -117.97674 | 2985 ft | 194 kts | 232° |
| 2026-05-06 04:44 | 34.00379 | -117.98970 | 2991 ft | 194 kts | 233° |
| 2026-05-06 04:45 | 33.99568 | -118.00275 | 2989 ft | 195 kts | 233° |
| 2026-05-06 04:45 | 33.98757 | -118.01580 | 2990 ft | 194 kts | 233° |
| 2026-05-06 04:45 | 33.97955 | -118.02871 | 2990 ft | 194 kts | 234° |
| 2026-05-06 04:45 | 33.97347 | -118.04310 | 2989 ft | 194 kts | 251° |
| 2026-05-06 04:46 | 33.97037 | -118.05896 | 2992 ft | 195 kts | 259° |
| 2026-05-06 04:46 | 33.96839 | -118.07509 | 3003 ft | 196 kts | 262° |
| 2026-05-06 04:46 | 33.96670 | -118.09129 | 2990 ft | 195 kts | 263° |
| 2026-05-06 04:46 | 33.96506 | -118.10760 | 2989 ft | 195 kts | 263° |
| 2026-05-06 04:47 | 33.96344 | -118.12381 | 2976 ft | 195 kts | 262° |
| 2026-05-06 04:47 | 33.96183 | -118.13993 | 2995 ft | 193 kts | 263° |
| 2026-05-06 04:47 | 33.96022 | -118.15608 | 2996 ft | 195 kts | 263° |
| 2026-05-06 04:47 | 33.95860 | -118.17227 | 3010 ft | 194 kts | 263° |
| 2026-05-06 04:48 | 33.95699 | -118.18830 | 3022 ft | 192 kts | 263° |
| 2026-05-06 04:48 | 33.95540 | -118.20422 | 2963 ft | 192 kts | 262° |
| 2026-05-06 04:48 | 33.95379 | -118.22020 | 2784 ft | 191 kts | 262° |
| 2026-05-06 04:48 | 33.95218 | -118.23620 | 2545 ft | 193 kts | 263° |
| 2026-05-06 04:49 | 33.95058 | -118.25212 | 2290 ft | 190 kts | 262° |
| 2026-05-06 04:49 | 33.94901 | -118.26770 | 2041 ft | 185 kts | 263° |
| 2026-05-06 04:49 | 33.94750 | -118.28262 | 1776 ft | 175 kts | 262° |
| 2026-05-06 04:49 | 33.94603 | -118.29664 | 1494 ft | 169 kts | 262° |
| 2026-05-06 04:50 | 33.94454 | -118.31053 | 1233 ft | 165 kts | 263° |
| 2026-05-06 04:50 | 33.94331 | -118.32364 | 1080 ft | 153 kts | 261° |
| 2026-05-06 04:50 | 33.94209 | -118.33598 | 906 ft | 145 kts | 262° |
| 2026-05-06 04:50 | 33.94091 | -118.34772 | 729 ft | 136 kts | 262° |
| 2026-05-06 04:51 | 33.93977 | -118.35868 | 495 ft | 128 kts | 261° |
| 2026-05-06 04:51 | 33.93869 | -118.36909 | 325 ft | 125 kts | 263° |
| 2026-05-06 04:51 | 33.93770 | -118.37931 | 189 ft | 121 kts | 260° |
| 2026-05-06 04:51 | 33.93673 | -118.38920 | 102 ft | 112 kts | 261° |
| 2026-05-06 04:52 | 33.93590 | -118.39696 | 94 ft | 71 kts | 263° |
| 2026-05-06 04:52 | 33.93563 | -118.40099 | 96 ft | 37 kts | 275° |
| 2026-05-06 04:52 | 33.93607 | -118.40309 | 98 ft | 11 kts | 293° |
| 2026-05-06 04:52 | 33.93627 | -118.40394 | 97 ft | 11 kts | 277° |
| 2026-05-06 04:53 | 33.93622 | -118.40497 | 96 ft | 13 kts | 262° |
| 2026-05-06 04:53 | 33.93608 | -118.40617 | 95 ft | 16 kts | 262° |
| 2026-05-06 04:53 | 33.93596 | -118.40745 | 94 ft | 14 kts | 263° |
| 2026-05-06 04:53 | 33.93615 | -118.40865 | 96 ft | 13 kts | 303° |
| 2026-05-06 04:54 | 33.93635 | -118.40886 | 95 ft | 0 kts | 330° |
| 2026-05-06 04:54 | 33.93635 | -118.40887 | 95 ft | 0 kts | 330° |
| 2026-05-06 04:55 | 33.93640 | -118.40889 | 98 ft | 1 kts | 335° |
| 2026-05-06 04:55 | 33.93657 | -118.40894 | 96 ft | 4 kts | 349° |
| 2026-05-06 04:55 | 33.93709 | -118.40904 | 95 ft | 10 kts | 354° |
| 2026-05-06 04:55 | 33.93789 | -118.40914 | 94 ft | 13 kts | 352° |
| 2026-05-06 04:56 | 33.93849 | -118.40923 | 93 ft | 8 kts | 359° |
| 2026-05-06 04:56 | 33.93873 | -118.40868 | 93 ft | 9 kts | 82° |
| 2026-05-06 04:56 | 33.93879 | -118.40816 | 93 ft | 4 kts | 82° |
| 2026-05-06 04:56 | 33.93883 | -118.40771 | 95 ft | 7 kts | 82° |
| 2026-05-06 04:57 | 33.93889 | -118.40713 | 93 ft | 4 kts | 84° |
| 2026-05-06 04:57 | 33.93892 | -118.40684 | 93 ft | 4 kts | 83° |
| 2026-05-06 04:57 | 33.93896 | -118.40641 | 93 ft | 6 kts | 83° |
| 2026-05-06 04:57 | 33.93900 | -118.40604 | 93 ft | 6 kts | 81° |
| 2026-05-06 04:58 | 33.93912 | -118.40551 | 94 ft | 8 kts | 56° |
| 2026-05-06 04:58 | 33.93970 | -118.40544 | 93 ft | 10 kts | 352° |
| 2026-05-06 04:58 | 33.94029 | -118.40554 | 94 ft | 8 kts | 352° |
| 2026-05-06 04:58 | 33.94043 | -118.40556 | 95 ft | 2 kts | 353° |
| 2026-05-06 04:59 | 33.94061 | -118.40549 | 93 ft | 2 kts | 53° |
| 2026-05-06 04:59 | 33.94064 | -118.40529 | 93 ft | 2 kts | 78° |
| 2026-05-06 04:59 | 33.94066 | -118.40510 | 93 ft | 2 kts | 81° |
| 2026-05-06 04:59 | 33.94067 | -118.40501 | 93 ft | 1 kts | 82° |
| 2026-05-06 05:00 | 33.94068 | -118.40498 | 93 ft | 0 kts | 82° |
| 2026-05-06 05:00 | 33.94068 | -118.40493 | 93 ft | 1 kts | 83° |
| 2026-05-06 05:00 | 33.94068 | -118.40492 | 93 ft | 0 kts | 83° |